createdAt,value
2022-09-13T00:00:50.639Z,17.10
2022-09-13T00:03:19.144Z,17.10
2022-09-13T00:05:50.962Z,17.10
2022-09-13T00:08:20.356Z,17.10
2022-09-13T00:10:49.207Z,17.10
2022-09-13T00:13:18.444Z,17.10
2022-09-13T00:15:47.929Z,17.10
2022-09-13T00:18:16.303Z,17.10
2022-09-13T00:20:44.288Z,17.10
2022-09-13T00:23:13.039Z,17.10
2022-09-13T00:25:42.362Z,17.10
2022-09-13T00:28:10.372Z,17.10
2022-09-13T00:30:38.335Z,17.00
2022-09-13T00:33:06.216Z,17.00
2022-09-13T00:35:34.073Z,17.00
2022-09-13T00:38:02.140Z,16.90
2022-09-13T00:40:31.102Z,16.90
2022-09-13T00:43:00.271Z,16.90
2022-09-13T00:45:28.393Z,16.80
2022-09-13T00:47:59.798Z,16.80
2022-09-13T00:50:32.960Z,16.80
2022-09-13T00:53:05.715Z,16.80
2022-09-13T00:55:39.555Z,16.70
2022-09-13T00:58:14.196Z,16.70
2022-09-13T01:00:42.332Z,16.70
2022-09-13T01:03:13.389Z,16.60
2022-09-13T01:05:44.936Z,16.60
2022-09-13T01:08:18.126Z,16.60
2022-09-13T01:10:47.641Z,16.60
2022-09-13T01:13:20.640Z,16.60
2022-09-13T01:15:48.507Z,16.60
2022-09-13T01:18:16.997Z,16.60
2022-09-13T01:21:04.812Z,16.50
2022-09-13T01:23:46.507Z,16.50
2022-09-13T01:26:48.699Z,16.50
2022-09-13T01:30:03.989Z,16.40
2022-09-13T01:32:42.575Z,16.40
2022-09-13T01:35:18.743Z,16.30
2022-09-13T01:37:54.622Z,16.30
2022-09-13T01:40:39.585Z,16.30
2022-09-13T01:43:26.259Z,16.20
2022-09-13T01:46:05.683Z,16.20
2022-09-13T01:48:45.467Z,16.20
2022-09-13T01:51:20.913Z,16.10
2022-09-13T01:53:56.313Z,16.10
2022-09-13T01:56:29.629Z,16.00
2022-09-13T01:59:01.316Z,16.00
2022-09-13T02:01:35.203Z,16.00
2022-09-13T02:04:10.314Z,16.00
2022-09-13T02:06:45.576Z,16.00
2022-09-13T02:09:21.265Z,16.00
2022-09-13T02:11:54.856Z,16.10
2022-09-13T02:14:27.809Z,16.10
2022-09-13T02:17:02.364Z,16.20
2022-09-13T02:19:36.430Z,16.20
2022-09-13T02:22:07.812Z,16.20
2022-09-13T02:24:39.116Z,16.20
2022-09-13T02:27:10.939Z,16.20
2022-09-13T02:29:42.419Z,16.10
2022-09-13T02:32:17.455Z,16.10
2022-09-13T02:34:48.235Z,16.10
2022-09-13T02:37:16.485Z,16.00
2022-09-13T02:39:51.110Z,16.00
2022-09-13T02:42:21.951Z,15.90
2022-09-13T02:44:53.108Z,15.90
2022-09-13T02:47:33.967Z,15.80
2022-09-13T02:50:12.383Z,15.80
2022-09-13T02:52:48.209Z,15.70
2022-09-13T02:55:23.427Z,15.70
2022-09-13T02:58:03.663Z,15.70
2022-09-13T03:00:31.911Z,15.70
2022-09-13T03:03:06.238Z,15.70
2022-09-13T03:05:34.118Z,15.70
2022-09-13T03:08:02.901Z,15.60
2022-09-13T03:10:41.775Z,15.60
2022-09-13T03:13:25.476Z,15.60
2022-09-13T03:16:07.744Z,15.60
2022-09-13T03:18:48.746Z,15.60
2022-09-13T03:21:35.911Z,15.60
2022-09-13T03:24:15.606Z,15.60
2022-09-13T03:26:52.493Z,15.60
2022-09-13T03:29:29.243Z,15.60
2022-09-13T03:32:16.763Z,15.60
2022-09-13T03:34:54.371Z,15.60
2022-09-13T03:37:28.638Z,15.50
2022-09-13T03:40:01.566Z,15.60
2022-09-13T03:42:35.976Z,15.60
2022-09-13T03:45:06.186Z,15.60
2022-09-13T03:47:36.755Z,15.50
2022-09-13T03:50:08.234Z,15.50
2022-09-13T03:52:36.762Z,15.50
2022-09-13T03:55:05.027Z,15.50
2022-09-13T03:57:32.985Z,15.50
2022-09-13T04:00:01.237Z,15.50
2022-09-13T04:02:29.992Z,15.60
2022-09-13T04:04:58.190Z,15.60
2022-09-13T04:07:27.378Z,15.60
2022-09-13T04:09:56.317Z,15.60
2022-09-13T04:12:24.183Z,15.60
2022-09-13T04:14:52.441Z,15.60
2022-09-13T04:17:20.742Z,15.70
2022-09-13T04:19:48.644Z,15.60
2022-09-13T04:22:16.845Z,15.70
2022-09-13T04:24:46.110Z,15.60
2022-09-13T04:27:14.304Z,15.60
2022-09-13T04:29:42.281Z,15.60
2022-09-13T04:32:10.919Z,15.60
2022-09-13T04:34:38.951Z,15.50
2022-09-13T04:37:06.777Z,15.50
2022-09-13T04:39:34.774Z,15.40
2022-09-13T04:42:04.863Z,15.30
2022-09-13T04:44:33.428Z,15.30
2022-09-13T04:47:01.270Z,15.40
2022-09-13T04:49:29.123Z,15.40
2022-09-13T04:51:56.951Z,15.40
2022-09-13T04:54:24.788Z,15.40
2022-09-13T04:56:52.775Z,15.40
2022-09-13T04:59:21.996Z,15.50
2022-09-13T05:01:50.042Z,15.50
2022-09-13T05:04:18.129Z,15.50
2022-09-13T05:06:47.773Z,15.60
2022-09-13T05:09:16.151Z,15.60
2022-09-13T05:11:44.244Z,15.60
2022-09-13T05:14:13.081Z,15.60
2022-09-13T05:16:42.560Z,15.70
2022-09-13T05:19:11.347Z,15.70
2022-09-13T05:21:39.361Z,15.70
2022-09-13T05:24:07.390Z,15.70
2022-09-13T05:26:35.360Z,15.70
2022-09-13T05:29:03.367Z,15.70
2022-09-13T05:31:33.731Z,15.70
2022-09-13T05:34:05.071Z,15.70
2022-09-13T05:36:33.470Z,15.70
2022-09-13T05:39:28.653Z,15.80
2022-09-13T05:41:49.671Z,15.80
2022-09-13T05:44:17.586Z,15.80
2022-09-13T05:46:48.665Z,15.80
2022-09-13T05:49:17.918Z,15.80
2022-09-13T05:51:45.888Z,15.80
2022-09-13T05:54:14.104Z,15.80
2022-09-13T05:56:42.117Z,15.90
2022-09-13T05:59:13.754Z,15.90
2022-09-13T06:01:42.029Z,15.90
2022-09-13T06:04:12.458Z,16.00
2022-09-13T06:06:41.721Z,16.00
2022-09-13T06:09:12.111Z,16.00
2022-09-13T06:11:39.939Z,16.00
2022-09-13T06:14:07.935Z,16.10
2022-09-13T06:16:35.865Z,16.10
2022-09-13T06:19:04.045Z,16.10
2022-09-13T06:21:31.904Z,16.10
2022-09-13T06:24:01.173Z,16.10
2022-09-13T06:26:29.649Z,16.20
2022-09-13T06:28:59.389Z,16.20
2022-09-13T06:31:29.534Z,16.20
2022-09-13T06:33:59.401Z,16.30
2022-09-13T06:36:27.580Z,16.30
2022-09-13T06:38:56.945Z,16.30
2022-09-13T06:41:27.167Z,16.30
2022-09-13T06:43:56.218Z,16.30
2022-09-13T06:46:25.490Z,16.40
2022-09-13T06:48:54.416Z,16.40
2022-09-13T06:51:23.837Z,16.40
2022-09-13T06:53:53.280Z,16.50
2022-09-13T06:56:23.262Z,16.50
2022-09-13T06:58:56.908Z,16.50
2022-09-13T07:01:26.604Z,16.50
2022-09-13T07:04:00.531Z,16.60
2022-09-13T07:06:31.146Z,16.60
2022-09-13T07:09:00.894Z,16.60
2022-09-13T07:11:34.424Z,16.70
2022-09-13T07:14:03.909Z,16.70
2022-09-13T07:16:33.789Z,16.70
2022-09-13T07:19:05.542Z,16.80
2022-09-13T07:21:34.573Z,16.80
2022-09-13T07:24:03.137Z,16.80
2022-09-13T07:26:32.011Z,16.90
2022-09-13T07:29:04.069Z,16.90
2022-09-13T07:31:33.766Z,16.90
2022-09-13T07:34:03.011Z,17.00
2022-09-13T07:36:32.545Z,17.00
2022-09-13T07:39:01.515Z,17.00
2022-09-13T07:41:30.747Z,17.00
2022-09-13T07:44:00.642Z,17.10
2022-09-13T07:46:32.737Z,17.10
2022-09-13T07:49:02.131Z,17.10
2022-09-13T07:51:32.036Z,17.10
2022-09-13T07:54:03.010Z,17.20
2022-09-13T07:56:32.785Z,17.20
2022-09-13T07:59:02.645Z,17.20
2022-09-13T08:01:36.626Z,17.30
2022-09-13T08:04:06.444Z,17.30
2022-09-13T08:06:36.257Z,17.30
2022-09-13T08:09:06.253Z,17.30
2022-09-13T08:11:36.352Z,17.40
2022-09-13T08:14:05.519Z,17.40
2022-09-13T08:16:35.451Z,17.40
2022-09-13T08:19:04.785Z,17.40
2022-09-13T08:21:35.420Z,17.50
2022-09-13T08:24:04.194Z,17.50
2022-09-13T08:26:34.255Z,17.50
2022-09-13T08:29:04.392Z,17.60
2022-09-13T08:31:34.830Z,17.60
2022-09-13T08:34:03.216Z,17.60
2022-09-13T08:36:31.319Z,17.60
2022-09-13T08:39:01.668Z,17.70
2022-09-13T08:41:52.321Z,17.70
2022-09-13T08:44:26.999Z,17.70
2022-09-13T08:47:03.322Z,17.70
2022-09-13T08:49:34.380Z,17.80
2022-09-13T08:52:13.103Z,17.80
2022-09-13T08:54:40.970Z,17.90
2022-09-13T08:57:17.834Z,17.90
2022-09-13T08:59:55.158Z,17.90
2022-09-13T09:02:38.355Z,18.00
2022-09-13T09:05:16.251Z,18.00
2022-09-13T09:07:46.952Z,18.00
2022-09-13T09:10:18.998Z,18.00
2022-09-13T09:12:49.923Z,18.00
2022-09-13T09:15:21.211Z,18.10
2022-09-13T09:17:57.467Z,18.10
2022-09-13T09:20:32.232Z,18.20
2022-09-13T09:23:04.058Z,18.20
2022-09-13T09:25:32.582Z,18.30
2022-09-13T09:28:00.960Z,18.40
2022-09-13T09:30:39.107Z,18.50
2022-09-13T09:33:22.809Z,18.70
2022-09-13T09:36:00.127Z,18.80
2022-09-13T09:38:39.674Z,18.90
2022-09-13T09:41:16.161Z,19.00
2022-09-13T09:43:49.277Z,19.00
2022-09-13T09:46:18.907Z,19.10
2022-09-13T09:48:53.391Z,19.10
2022-09-13T09:51:24.836Z,19.20
2022-09-13T09:54:00.816Z,19.30
2022-09-13T09:56:32.898Z,19.30
2022-09-13T09:59:02.535Z,19.40
2022-09-13T10:01:32.777Z,19.40
2022-09-13T10:04:09.425Z,19.50
2022-09-13T10:06:39.067Z,19.50
2022-09-13T10:09:09.195Z,19.60
2022-09-13T10:11:46.203Z,19.60
2022-09-13T10:14:35.867Z,19.60
2022-09-13T10:17:06.454Z,19.60
2022-09-13T10:19:36.345Z,19.60
2022-09-13T10:22:06.683Z,19.50
2022-09-13T10:24:34.588Z,19.50
2022-09-13T10:27:04.155Z,19.50
2022-09-13T10:29:33.039Z,19.50
2022-09-13T10:32:08.424Z,19.50
2022-09-13T10:34:38.470Z,19.50
2022-09-13T10:37:14.725Z,19.50
2022-09-13T10:40:02.492Z,19.50
2022-09-13T10:42:31.060Z,19.50
2022-09-13T10:45:02.103Z,19.50
2022-09-13T10:47:35.748Z,19.50
2022-09-13T10:50:22.067Z,19.50
2022-09-13T10:52:51.151Z,19.60
2022-09-13T10:55:28.323Z,19.60
2022-09-13T10:58:13.473Z,19.60
2022-09-13T11:01:01.601Z,19.60
2022-09-13T11:03:40.471Z,19.60
2022-09-13T11:06:17.354Z,19.60
2022-09-13T11:08:53.604Z,19.60
2022-09-13T11:11:28.265Z,19.60
2022-09-13T11:14:08.374Z,19.60
2022-09-13T11:16:49.811Z,19.60
2022-09-13T11:19:52.998Z,19.70
2022-09-13T11:22:46.344Z,19.70
2022-09-13T11:25:25.560Z,19.70
2022-09-13T11:28:00.519Z,19.70
2022-09-13T11:30:32.405Z,19.80
2022-09-13T11:33:19.209Z,19.80
2022-09-13T11:36:01.031Z,19.80
2022-09-13T11:38:41.797Z,19.80
2022-09-13T11:41:18.715Z,19.80
2022-09-13T11:44:01.286Z,19.90
2022-09-13T11:46:40.435Z,19.90
2022-09-13T11:49:38.470Z,19.90
2022-09-13T11:52:13.610Z,20.00
2022-09-13T11:54:55.291Z,20.00
2022-09-13T11:57:27.909Z,20.10
2022-09-13T12:00:00.215Z,20.10
2022-09-13T12:02:33.445Z,20.20
2022-09-13T12:05:21.585Z,20.20
2022-09-13T12:07:54.272Z,20.30
2022-09-13T12:10:26.803Z,20.40
2022-09-13T12:12:56.226Z,20.50
2022-09-13T12:15:33.684Z,20.50
2022-09-13T12:18:06.671Z,20.50
2022-09-13T12:20:37.879Z,20.60
2022-09-13T12:23:12.574Z,20.60
2022-09-13T12:25:49.388Z,20.70
2022-09-13T12:28:22.440Z,20.70
2022-09-13T12:30:55.611Z,20.80
2022-09-13T12:33:23.870Z,20.80
2022-09-13T12:36:04.300Z,20.80
2022-09-13T12:39:11.407Z,20.80
2022-09-13T12:41:53.363Z,20.90
2022-09-13T12:44:42.428Z,20.90
2022-09-13T12:47:52.017Z,20.90
2022-09-13T12:50:44.959Z,20.90
2022-09-13T12:53:36.024Z,20.90
2022-09-13T12:56:17.311Z,20.90
2022-09-13T12:59:04.218Z,20.90
2022-09-13T13:01:33.252Z,21.00
2022-09-13T13:04:09.665Z,21.00
2022-09-13T13:06:48.957Z,21.00
2022-09-13T13:09:28.743Z,21.10
2022-09-13T13:11:59.288Z,21.10
2022-09-13T13:14:48.224Z,21.20
2022-09-13T13:17:45.663Z,21.20
2022-09-13T13:21:03.960Z,21.30
2022-09-13T13:23:35.230Z,21.30
2022-09-13T13:26:13.307Z,21.30
2022-09-13T13:29:07.047Z,21.30
2022-09-13T13:31:41.718Z,21.40
2022-09-13T13:34:30.244Z,21.40
2022-09-13T13:37:02.248Z,21.40
2022-09-13T13:39:39.776Z,21.50
2022-09-13T13:42:26.163Z,21.50
2022-09-13T13:45:16.703Z,21.50
2022-09-13T13:48:20.578Z,21.50
2022-09-13T13:51:18.364Z,21.60
2022-09-13T13:53:49.919Z,21.60
2022-09-13T13:56:33.842Z,21.60
2022-09-13T13:59:07.511Z,21.60
2022-09-13T14:01:40.150Z,21.70
2022-09-13T14:04:36.580Z,21.70
2022-09-13T14:07:19.736Z,21.70
2022-09-13T14:09:57.608Z,21.70
2022-09-13T14:12:42.631Z,21.70
2022-09-13T14:15:25.305Z,21.80
2022-09-13T14:18:28.204Z,21.80
2022-09-13T14:21:03.733Z,21.80
2022-09-13T14:23:34.298Z,21.80
2022-09-13T14:26:02.794Z,21.80
2022-09-13T14:28:33.037Z,21.80
2022-09-13T14:31:01.310Z,21.80
2022-09-13T14:33:32.067Z,21.90
2022-09-13T14:36:06.914Z,21.90
2022-09-13T14:38:37.071Z,21.90
2022-09-13T14:41:14.473Z,21.90
2022-09-13T14:43:43.304Z,21.90
2022-09-13T14:46:16.143Z,21.90
2022-09-13T14:48:51.390Z,21.90
2022-09-13T14:51:24.279Z,21.90
2022-09-13T14:53:58.280Z,21.90
2022-09-13T14:56:34.176Z,21.90
2022-09-13T14:59:06.568Z,21.90
2022-09-13T15:01:36.489Z,22.00
2022-09-13T15:04:06.478Z,22.00
2022-09-13T15:06:38.138Z,22.00
2022-09-13T15:09:27.459Z,22.00
2022-09-13T15:12:01.086Z,22.00
2022-09-13T15:14:31.167Z,22.00
2022-09-13T15:17:09.095Z,22.00
2022-09-13T15:19:39.638Z,22.00
2022-09-13T15:22:18.742Z,22.00
2022-09-13T15:24:50.943Z,21.90
2022-09-13T15:27:26.078Z,21.90
2022-09-13T15:29:56.027Z,21.90
2022-09-13T15:32:40.472Z,21.90
2022-09-13T15:35:19.412Z,21.90
2022-09-13T15:37:47.290Z,21.90
2022-09-13T15:40:19.994Z,21.90
2022-09-13T15:42:49.547Z,21.90
2022-09-13T15:45:18.571Z,21.80
2022-09-13T15:47:47.817Z,21.80
2022-09-13T15:50:26.703Z,21.80
2022-09-13T15:52:55.450Z,21.80
2022-09-13T15:55:25.570Z,21.70
2022-09-13T15:57:53.794Z,21.70
2022-09-13T16:00:23.649Z,21.70
2022-09-13T16:02:51.855Z,21.70
2022-09-13T16:05:20.459Z,21.70
2022-09-13T16:07:48.658Z,21.70
2022-09-13T16:10:19.231Z,21.60
2022-09-13T16:12:48.718Z,21.60
2022-09-13T16:15:17.012Z,21.60
2022-09-13T16:17:44.923Z,21.50
2022-09-13T16:20:15.311Z,21.50
2022-09-13T16:22:43.350Z,21.50
2022-09-13T16:25:13.977Z,21.50
2022-09-13T16:27:42.754Z,21.40
2022-09-13T16:30:15.369Z,21.40
2022-09-13T16:32:43.676Z,21.40
2022-09-13T16:35:13.600Z,21.40
2022-09-13T16:37:42.005Z,21.40
2022-09-13T16:40:11.500Z,21.40
2022-09-13T16:42:39.571Z,21.40
2022-09-13T16:45:08.719Z,21.40
2022-09-13T16:47:39.389Z,21.30
2022-09-13T16:50:08.345Z,21.30
2022-09-13T16:52:36.890Z,21.30
2022-09-13T16:55:06.124Z,21.30
2022-09-13T16:57:34.395Z,21.30
2022-09-13T17:00:04.293Z,21.20
2022-09-13T17:02:32.606Z,21.20
2022-09-13T17:05:02.001Z,21.20
2022-09-13T17:07:29.839Z,21.20
2022-09-13T17:09:57.783Z,21.20
2022-09-13T17:12:25.760Z,21.10
2022-09-13T17:14:54.995Z,21.10
2022-09-13T17:17:22.867Z,21.10
2022-09-13T17:19:52.763Z,21.10
2022-09-13T17:22:21.968Z,21.10
2022-09-13T17:24:49.858Z,21.10
2022-09-13T17:27:17.774Z,21.00
2022-09-13T17:29:45.624Z,21.00
2022-09-13T17:32:13.448Z,21.00
2022-09-13T17:34:41.411Z,21.00
2022-09-13T17:37:09.552Z,21.00
2022-09-13T17:39:38.890Z,20.90
2022-09-13T17:42:07.152Z,20.90
2022-09-13T17:44:35.014Z,20.90
2022-09-13T17:47:02.913Z,20.90
2022-09-13T17:49:30.863Z,20.90
2022-09-13T17:51:58.759Z,20.90
2022-09-13T17:54:27.118Z,20.90
2022-09-13T17:56:56.306Z,20.80
2022-09-13T17:59:24.196Z,20.80
2022-09-13T18:01:54.093Z,20.80
2022-09-13T18:04:23.639Z,20.80
2022-09-13T18:06:52.783Z,20.80
2022-09-13T18:09:21.374Z,20.80
2022-09-13T18:11:50.472Z,20.80
2022-09-13T18:14:20.525Z,20.80
2022-09-13T18:16:55.308Z,20.70
2022-09-13T18:19:44.455Z,20.80
2022-09-13T18:22:12.032Z,20.70
2022-09-13T18:24:40.764Z,20.70
2022-09-13T18:27:08.684Z,20.70
2022-09-13T18:29:37.954Z,20.70
2022-09-13T18:32:06.072Z,20.70
2022-09-13T18:34:33.961Z,20.70
2022-09-13T18:37:01.867Z,20.70
2022-09-13T18:39:29.693Z,20.60
2022-09-13T18:41:57.655Z,20.60
2022-09-13T18:44:25.661Z,20.60
2022-09-13T18:46:55.921Z,20.60
2022-09-13T18:49:23.749Z,20.60
2022-09-13T18:51:51.617Z,20.60
2022-09-13T18:54:19.757Z,20.60
2022-09-13T18:56:48.988Z,20.60
2022-09-13T18:59:16.980Z,20.60
2022-09-13T19:01:45.723Z,20.50
2022-09-13T19:04:16.907Z,20.50
2022-09-13T19:06:46.018Z,20.50
2022-09-13T19:09:15.169Z,20.50
2022-09-13T19:11:47.860Z,20.50
2022-09-13T19:14:17.199Z,20.50
2022-09-13T19:16:46.941Z,20.50
2022-09-13T19:19:16.451Z,20.40
2022-09-13T19:21:44.540Z,20.40
2022-09-13T19:24:17.629Z,20.40
2022-09-13T19:26:47.207Z,20.40
2022-09-13T19:29:16.924Z,20.50
2022-09-13T19:31:47.564Z,20.40
2022-09-13T19:34:17.769Z,20.40
2022-09-13T19:36:46.149Z,20.40
2022-09-13T19:39:14.281Z,20.40
2022-09-13T19:41:42.403Z,20.40
2022-09-13T19:44:13.852Z,20.40
2022-09-13T19:46:43.098Z,20.40
2022-09-13T19:49:13.788Z,20.40
2022-09-13T19:51:47.557Z,20.30
2022-09-13T19:54:19.422Z,20.40
2022-09-13T19:56:47.859Z,20.40
2022-09-13T19:59:19.664Z,20.30
2022-09-13T20:01:48.691Z,20.40
2022-09-13T20:04:18.189Z,20.40
2022-09-13T20:06:50.007Z,20.40
2022-09-13T20:09:19.980Z,20.40
2022-09-13T20:11:48.796Z,20.40
2022-09-13T20:14:19.701Z,20.40
2022-09-13T20:16:47.778Z,20.30
2022-09-13T20:19:39.381Z,20.30
2022-09-13T20:22:08.830Z,20.30
2022-09-13T20:24:36.756Z,20.30
2022-09-13T20:27:04.798Z,20.30
2022-09-13T20:29:32.755Z,20.30
2022-09-13T20:32:02.133Z,20.30
2022-09-13T20:34:30.041Z,20.30
2022-09-13T20:36:57.879Z,20.30
2022-09-13T20:39:27.205Z,20.30
2022-09-13T20:41:55.431Z,20.30
2022-09-13T20:44:23.411Z,20.30
2022-09-13T20:46:51.294Z,20.30
2022-09-13T20:49:19.593Z,20.20
2022-09-13T20:51:49.306Z,20.20
2022-09-13T20:54:17.397Z,20.20
2022-09-13T20:56:46.755Z,20.20
2022-09-13T20:59:14.746Z,20.20
2022-09-13T21:01:42.694Z,20.20
2022-09-13T21:04:10.955Z,20.20
2022-09-13T21:07:02.509Z,20.20
2022-09-13T21:09:29.542Z,20.20
2022-09-13T21:11:58.793Z,20.20
2022-09-13T21:14:26.679Z,20.20
2022-09-13T21:16:56.741Z,20.20
2022-09-13T21:19:25.900Z,20.20
2022-09-13T21:21:54.441Z,20.20
2022-09-13T21:24:22.418Z,20.20
2022-09-13T21:26:50.280Z,20.20
2022-09-13T21:29:19.461Z,20.20
2022-09-13T21:31:47.349Z,20.20
2022-09-13T21:34:16.777Z,20.20
2022-09-13T21:36:46.027Z,20.20
2022-09-13T21:39:14.795Z,20.20
2022-09-13T21:41:42.995Z,20.20
2022-09-13T21:44:11.115Z,20.20
2022-09-13T21:46:41.476Z,20.20
2022-09-13T21:49:11.519Z,20.20
2022-09-13T21:51:41.246Z,20.20
2022-09-13T21:54:11.080Z,20.20
2022-09-13T21:56:40.905Z,20.10
2022-09-13T21:59:12.662Z,20.10
2022-09-13T22:01:43.519Z,20.10
2022-09-13T22:04:16.098Z,20.10
2022-09-13T22:06:44.269Z,20.10
2022-09-13T22:09:13.345Z,20.10
2022-09-13T22:11:43.570Z,20.10
2022-09-13T22:14:13.248Z,20.10
2022-09-13T22:16:43.660Z,20.10
2022-09-13T22:19:13.888Z,20.00
2022-09-13T22:21:43.665Z,20.00
2022-09-13T22:24:16.317Z,20.00
2022-09-13T22:26:44.915Z,20.00
2022-09-13T22:29:13.142Z,19.90
2022-09-13T22:31:43.779Z,19.90
2022-09-13T22:34:14.424Z,19.90
2022-09-13T22:36:43.091Z,19.80
2022-09-13T22:39:12.396Z,19.80
2022-09-13T22:41:40.794Z,19.80
2022-09-13T22:44:09.487Z,19.70
2022-09-13T22:46:38.977Z,19.70
2022-09-13T22:49:09.035Z,19.70
2022-09-13T22:51:36.848Z,19.70
2022-09-13T22:54:07.228Z,19.70
2022-09-13T22:56:36.747Z,19.70
2022-09-13T22:59:07.215Z,19.70
2022-09-13T23:01:36.030Z,19.70
2022-09-13T23:04:04.788Z,19.70
2022-09-13T23:06:34.883Z,19.70
2022-09-13T23:09:05.780Z,19.70
2022-09-13T23:11:35.812Z,19.80
2022-09-13T23:14:06.299Z,19.80
2022-09-13T23:16:36.584Z,19.80
2022-09-13T23:19:04.641Z,19.80
2022-09-13T23:21:35.643Z,19.80
2022-09-13T23:24:05.648Z,19.80
2022-09-13T23:26:34.968Z,19.80
2022-09-13T23:29:04.279Z,19.80
2022-09-13T23:31:34.831Z,19.70
2022-09-13T23:34:04.483Z,19.70
2022-09-13T23:36:36.457Z,19.70
2022-09-13T23:39:07.870Z,19.60
2022-09-13T23:41:36.041Z,19.60
2022-09-13T23:44:05.021Z,19.60
2022-09-13T23:46:32.909Z,19.60
2022-09-13T23:49:00.785Z,19.60
2022-09-13T23:51:28.722Z,19.60
2022-09-13T23:54:00.813Z,19.60
2022-09-13T23:56:31.596Z,19.60
2022-09-13T23:59:01.331Z,19.60
